sensor_id;sensor_type;location;lat;lon;timestamp;P1;durP1;ratioP1;P2;durP2;ratioP2
7941;SDS011;4016;50.758;7.150;2023-05-07T00:02:01;4.40;;;3.90;;
7941;SDS011;4016;50.758;7.150;2023-05-07T00:07:03;4.93;;;4.43;;
7941;SDS011;4016;50.758;7.150;2023-05-07T00:12:04;5.17;;;4.67;;
7941;SDS011;4016;50.758;7.150;2023-05-07T00:17:04;4.57;;;4.17;;
7941;SDS011;4016;50.758;7.150;2023-05-07T00:22:05;5.27;;;4.60;;
7941;SDS011;4016;50.758;7.150;2023-05-07T00:27:05;4.43;;;4.03;;
7941;SDS011;4016;50.758;7.150;2023-05-07T00:32:06;7.13;;;4.23;;
7941;SDS011;4016;50.758;7.150;2023-05-07T00:37:06;5.53;;;4.33;;
7941;SDS011;4016;50.758;7.150;2023-05-07T00:42:10;5.17;;;3.70;;
7941;SDS011;4016;50.758;7.150;2023-05-07T00:47:10;4.70;;;3.57;;
7941;SDS011;4016;50.758;7.150;2023-05-07T00:52:13;3.80;;;3.50;;
7941;SDS011;4016;50.758;7.150;2023-05-07T00:57:15;3.93;;;3.43;;
7941;SDS011;4016;50.758;7.150;2023-05-07T01:02:16;3.80;;;3.50;;
7941;SDS011;4016;50.758;7.150;2023-05-07T01:07:17;5.03;;;3.30;;
7941;SDS011;4016;50.758;7.150;2023-05-07T01:12:17;3.93;;;3.40;;
7941;SDS011;4016;50.758;7.150;2023-05-07T01:17:18;4.23;;;3.80;;
7941;SDS011;4016;50.758;7.150;2023-05-07T01:22:28;3.90;;;3.60;;
7941;SDS011;4016;50.758;7.150;2023-05-07T01:27:31;5.23;;;3.70;;
7941;SDS011;4016;50.758;7.150;2023-05-07T01:32:35;6.30;;;3.47;;
7941;SDS011;4016;50.758;7.150;2023-05-07T01:37:39;3.97;;;3.40;;
7941;SDS011;4016;50.758;7.150;2023-05-07T01:42:41;3.73;;;3.30;;
7941;SDS011;4016;50.758;7.150;2023-05-07T01:47:43;3.50;;;3.20;;
7941;SDS011;4016;50.758;7.150;2023-05-07T01:52:44;4.07;;;3.67;;
7941;SDS011;4016;50.758;7.150;2023-05-07T01:57:44;3.57;;;3.27;;
7941;SDS011;4016;50.758;7.150;2023-05-07T02:02:45;3.87;;;3.40;;
7941;SDS011;4016;50.758;7.150;2023-05-07T02:07:46;4.00;;;3.60;;
7941;SDS011;4016;50.758;7.150;2023-05-07T02:12:46;5.27;;;3.83;;
7941;SDS011;4016;50.758;7.150;2023-05-07T02:18:00;3.90;;;3.50;;
7941;SDS011;4016;50.758;7.150;2023-05-07T02:23:07;3.47;;;3.17;;
7941;SDS011;4016;50.758;7.150;2023-05-07T02:28:08;4.00;;;3.60;;
7941;SDS011;4016;50.758;7.150;2023-05-07T02:33:09;3.50;;;3.20;;
7941;SDS011;4016;50.758;7.150;2023-05-07T02:38:09;3.67;;;3.37;;
7941;SDS011;4016;50.758;7.150;2023-05-07T02:43:10;3.77;;;3.47;;
7941;SDS011;4016;50.758;7.150;2023-05-07T02:48:11;3.77;;;3.20;;
7941;SDS011;4016;50.758;7.150;2023-05-07T02:53:11;3.63;;;3.33;;
7941;SDS011;4016;50.758;7.150;2023-05-07T02:58:11;3.90;;;3.27;;
7941;SDS011;4016;50.758;7.150;2023-05-07T03:03:12;3.80;;;3.50;;
7941;SDS011;4016;50.758;7.150;2023-05-07T03:08:12;3.63;;;3.30;;
7941;SDS011;4016;50.758;7.150;2023-05-07T03:13:13;5.03;;;3.67;;
7941;SDS011;4016;50.758;7.150;2023-05-07T03:18:13;5.33;;;3.53;;
7941;SDS011;4016;50.758;7.150;2023-05-07T03:23:14;3.70;;;3.40;;
7941;SDS011;4016;50.758;7.150;2023-05-07T03:28:14;3.70;;;3.30;;
7941;SDS011;4016;50.758;7.150;2023-05-07T03:33:14;3.50;;;3.20;;
7941;SDS011;4016;50.758;7.150;2023-05-07T03:38:15;3.70;;;3.40;;
7941;SDS011;4016;50.758;7.150;2023-05-07T03:43:15;3.73;;;3.40;;
7941;SDS011;4016;50.758;7.150;2023-05-07T03:48:16;3.43;;;3.13;;
7941;SDS011;4016;50.758;7.150;2023-05-07T03:53:16;3.57;;;3.27;;
7941;SDS011;4016;50.758;7.150;2023-05-07T03:58:16;4.10;;;3.70;;
7941;SDS011;4016;50.758;7.150;2023-05-07T04:03:17;4.20;;;3.47;;
7941;SDS011;4016;50.758;7.150;2023-05-07T04:08:17;4.03;;;3.40;;
7941;SDS011;4016;50.758;7.150;2023-05-07T04:13:18;4.07;;;3.67;;
7941;SDS011;4016;50.758;7.150;2023-05-07T04:18:18;4.73;;;4.33;;
7941;SDS011;4016;50.758;7.150;2023-05-07T04:23:18;4.90;;;4.40;;
7941;SDS011;4016;50.758;7.150;2023-05-07T04:28:19;3.97;;;3.67;;
7941;SDS011;4016;50.758;7.150;2023-05-07T04:33:20;4.13;;;3.70;;
7941;SDS011;4016;50.758;7.150;2023-05-07T04:38:20;3.83;;;3.43;;
7941;SDS011;4016;50.758;7.150;2023-05-07T04:43:21;3.93;;;3.30;;
7941;SDS011;4016;50.758;7.150;2023-05-07T04:48:21;3.90;;;3.60;;
7941;SDS011;4016;50.758;7.150;2023-05-07T04:53:22;3.53;;;3.23;;
7941;SDS011;4016;50.758;7.150;2023-05-07T04:58:22;4.10;;;3.70;;
7941;SDS011;4016;50.758;7.150;2023-05-07T05:03:23;3.73;;;3.37;;
7941;SDS011;4016;50.758;7.150;2023-05-07T05:08:24;4.13;;;3.50;;
7941;SDS011;4016;50.758;7.150;2023-05-07T05:13:24;4.10;;;3.70;;
7941;SDS011;4016;50.758;7.150;2023-05-07T05:18:24;3.63;;;3.30;;
7941;SDS011;4016;50.758;7.150;2023-05-07T05:23:25;3.67;;;3.37;;
7941;SDS011;4016;50.758;7.150;2023-05-07T05:28:25;4.37;;;3.97;;
7941;SDS011;4016;50.758;7.150;2023-05-07T05:33:27;4.10;;;3.67;;
7941;SDS011;4016;50.758;7.150;2023-05-07T05:38:27;3.70;;;3.40;;
7941;SDS011;4016;50.758;7.150;2023-05-07T05:43:28;3.90;;;3.53;;
7941;SDS011;4016;50.758;7.150;2023-05-07T05:48:28;4.73;;;4.00;;
7941;SDS011;4016;50.758;7.150;2023-05-07T05:53:29;3.87;;;3.57;;
7941;SDS011;4016;50.758;7.150;2023-05-07T05:58:29;3.53;;;3.23;;
7941;SDS011;4016;50.758;7.150;2023-05-07T06:03:30;3.87;;;3.43;;
7941;SDS011;4016;50.758;7.150;2023-05-07T06:08:32;4.10;;;3.33;;
7941;SDS011;4016;50.758;7.150;2023-05-07T06:13:32;3.50;;;3.20;;
7941;SDS011;4016;50.758;7.150;2023-05-07T06:18:32;3.77;;;3.33;;
7941;SDS011;4016;50.758;7.150;2023-05-07T06:23:33;3.17;;;2.97;;
7941;SDS011;4016;50.758;7.150;2023-05-07T06:28:33;3.57;;;3.27;;
7941;SDS011;4016;50.758;7.150;2023-05-07T06:33:35;3.17;;;2.90;;
7941;SDS011;4016;50.758;7.150;2023-05-07T06:38:36;4.03;;;2.90;;
7941;SDS011;4016;50.758;7.150;2023-05-07T06:43:36;3.47;;;3.10;;
7941;SDS011;4016;50.758;7.150;2023-05-07T06:48:36;3.38;;;2.90;;
7941;SDS011;4016;50.758;7.150;2023-05-07T06:53:37;3.28;;;2.95;;
7941;SDS011;4016;50.758;7.150;2023-05-07T06:58:37;2.90;;;2.70;;
7941;SDS011;4016;50.758;7.150;2023-05-07T07:03:38;3.22;;;2.80;;
7941;SDS011;4016;50.758;7.150;2023-05-07T07:08:38;3.05;;;2.75;;
7941;SDS011;4016;50.758;7.150;2023-05-07T07:13:38;2.80;;;2.60;;
7941;SDS011;4016;50.758;7.150;2023-05-07T07:18:40;3.20;;;2.90;;
7941;SDS011;4016;50.758;7.150;2023-05-07T07:23:40;3.88;;;2.75;;
7941;SDS011;4016;50.758;7.150;2023-05-07T07:28:44;3.00;;;2.80;;
7941;SDS011;4016;50.758;7.150;2023-05-07T07:33:45;3.00;;;2.80;;
7941;SDS011;4016;50.758;7.150;2023-05-07T07:38:45;2.97;;;2.78;;
7941;SDS011;4016;50.758;7.150;2023-05-07T07:43:46;3.40;;;3.10;;
7941;SDS011;4016;50.758;7.150;2023-05-07T07:48:49;2.78;;;2.58;;
7941;SDS011;4016;50.758;7.150;2023-05-07T07:53:49;2.90;;;2.65;;
7941;SDS011;4016;50.758;7.150;2023-05-07T07:58:50;3.10;;;2.90;;
7941;SDS011;4016;50.758;7.150;2023-05-07T08:03:50;2.97;;;2.78;;
7941;SDS011;4016;50.758;7.150;2023-05-07T08:08:51;3.25;;;2.95;;
7941;SDS011;4016;50.758;7.150;2023-05-07T08:13:51;3.65;;;2.97;;
7941;SDS011;4016;50.758;7.150;2023-05-07T08:18:52;2.88;;;2.67;;
7941;SDS011;4016;50.758;7.150;2023-05-07T08:23:52;3.45;;;2.63;;
7941;SDS011;4016;50.758;7.150;2023-05-07T08:28:53;4.53;;;3.08;;
7941;SDS011;4016;50.758;7.150;2023-05-07T08:33:53;2.78;;;2.58;;
7941;SDS011;4016;50.758;7.150;2023-05-07T08:38:53;2.80;;;2.60;;
7941;SDS011;4016;50.758;7.150;2023-05-07T08:43:54;3.35;;;2.75;;
7941;SDS011;4016;50.758;7.150;2023-05-07T08:48:58;3.22;;;2.95;;
7941;SDS011;4016;50.758;7.150;2023-05-07T08:53:58;2.78;;;2.55;;
7941;SDS011;4016;50.758;7.150;2023-05-07T08:59:01;4.78;;;4.18;;
7941;SDS011;4016;50.758;7.150;2023-05-07T09:04:01;2.72;;;2.53;;
7941;SDS011;4016;50.758;7.150;2023-05-07T09:09:02;3.40;;;3.10;;
7941;SDS011;4016;50.758;7.150;2023-05-07T09:14:05;2.80;;;2.58;;
7941;SDS011;4016;50.758;7.150;2023-05-07T09:19:05;3.70;;;3.00;;
7941;SDS011;4016;50.758;7.150;2023-05-07T09:24:05;2.83;;;2.63;;
7941;SDS011;4016;50.758;7.150;2023-05-07T09:29:07;3.08;;;2.88;;
7941;SDS011;4016;50.758;7.150;2023-05-07T09:34:07;3.40;;;2.53;;
7941;SDS011;4016;50.758;7.150;2023-05-07T09:39:08;2.70;;;2.53;;
7941;SDS011;4016;50.758;7.150;2023-05-07T09:44:08;3.13;;;2.92;;
7941;SDS011;4016;50.758;7.150;2023-05-07T09:49:12;3.40;;;2.75;;
7941;SDS011;4016;50.758;7.150;2023-05-07T09:54:20;3.53;;;3.00;;
7941;SDS011;4016;50.758;7.150;2023-05-07T09:59:21;2.90;;;2.70;;
7941;SDS011;4016;50.758;7.150;2023-05-07T10:04:22;2.72;;;2.53;;
7941;SDS011;4016;50.758;7.150;2023-05-07T10:09:23;2.85;;;2.65;;
7941;SDS011;4016;50.758;7.150;2023-05-07T10:14:25;2.80;;;2.60;;
7941;SDS011;4016;50.758;7.150;2023-05-07T10:19:27;3.97;;;2.92;;
7941;SDS011;4016;50.758;7.150;2023-05-07T10:24:31;3.13;;;2.75;;
7941;SDS011;4016;50.758;7.150;2023-05-07T10:34:53;3.22;;;3.00;;
7941;SDS011;4016;50.758;7.150;2023-05-07T10:39:56;2.90;;;2.70;;
7941;SDS011;4016;50.758;7.150;2023-05-07T10:44:57;3.00;;;2.75;;
7941;SDS011;4016;50.758;7.150;2023-05-07T10:50:40;2.75;;;2.55;;
7941;SDS011;4016;50.758;7.150;2023-05-07T10:55:21;2.90;;;2.70;;
7941;SDS011;4016;50.758;7.150;2023-05-07T11:05:26;2.50;;;2.30;;
7941;SDS011;4016;50.758;7.150;2023-05-07T11:10:48;2.58;;;2.38;;
7941;SDS011;4016;50.758;7.150;2023-05-07T11:15:50;2.28;;;2.17;;
7941;SDS011;4016;50.758;7.150;2023-05-07T11:26:05;2.55;;;2.35;;
7941;SDS011;4016;50.758;7.150;2023-05-07T11:31:07;4.22;;;2.83;;
7941;SDS011;4016;50.758;7.150;2023-05-07T11:36:07;2.85;;;2.40;;
7941;SDS011;4016;50.758;7.150;2023-05-07T11:41:08;3.65;;;2.55;;
7941;SDS011;4016;50.758;7.150;2023-05-07T11:46:09;2.33;;;2.23;;
7941;SDS011;4016;50.758;7.150;2023-05-07T11:51:11;2.47;;;2.30;;
7941;SDS011;4016;50.758;7.150;2023-05-07T11:56:13;2.58;;;2.38;;
7941;SDS011;4016;50.758;7.150;2023-05-07T12:01:15;2.40;;;2.22;;
7941;SDS011;4016;50.758;7.150;2023-05-07T12:06:16;2.35;;;2.25;;
7941;SDS011;4016;50.758;7.150;2023-05-07T12:11:23;2.45;;;2.33;;
7941;SDS011;4016;50.758;7.150;2023-05-07T12:16:25;1.90;;;1.80;;
7941;SDS011;4016;50.758;7.150;2023-05-07T12:21:26;2.67;;;2.47;;
7941;SDS011;4016;50.758;7.150;2023-05-07T12:26:26;2.42;;;2.33;;
7941;SDS011;4016;50.758;7.150;2023-05-07T12:31:26;2.60;;;2.35;;
7941;SDS011;4016;50.758;7.150;2023-05-07T12:36:27;3.20;;;2.72;;
7941;SDS011;4016;50.758;7.150;2023-05-07T12:41:52;2.45;;;2.35;;
7941;SDS011;4016;50.758;7.150;2023-05-07T12:46:56;2.70;;;2.50;;
7941;SDS011;4016;50.758;7.150;2023-05-07T12:51:56;4.25;;;2.67;;
7941;SDS011;4016;50.758;7.150;2023-05-07T12:57:04;2.58;;;2.22;;
7941;SDS011;4016;50.758;7.150;2023-05-07T13:02:08;3.03;;;2.72;;
7941;SDS011;4016;50.758;7.150;2023-05-07T13:07:09;2.92;;;2.72;;
7941;SDS011;4016;50.758;7.150;2023-05-07T13:12:09;2.72;;;2.53;;
7941;SDS011;4016;50.758;7.150;2023-05-07T13:17:10;3.25;;;2.80;;
7941;SDS011;4016;50.758;7.150;2023-05-07T13:22:10;4.78;;;4.20;;
7941;SDS011;4016;50.758;7.150;2023-05-07T13:27:11;2.92;;;2.72;;
7941;SDS011;4016;50.758;7.150;2023-05-07T13:32:11;3.40;;;2.83;;
7941;SDS011;4016;50.758;7.150;2023-05-07T13:37:11;3.03;;;2.70;;
7941;SDS011;4016;50.758;7.150;2023-05-07T13:42:12;3.00;;;2.80;;
7941;SDS011;4016;50.758;7.150;2023-05-07T13:47:12;2.85;;;2.65;;
7941;SDS011;4016;50.758;7.150;2023-05-07T13:52:12;3.00;;;2.70;;
7941;SDS011;4016;50.758;7.150;2023-05-07T13:57:13;2.95;;;2.75;;
7941;SDS011;4016;50.758;7.150;2023-05-07T14:02:13;3.15;;;2.90;;
7941;SDS011;4016;50.758;7.150;2023-05-07T14:07:13;3.17;;;2.88;;
7941;SDS011;4016;50.758;7.150;2023-05-07T14:12:15;3.03;;;2.72;;
7941;SDS011;4016;50.758;7.150;2023-05-07T14:17:18;4.00;;;3.60;;
7941;SDS011;4016;50.758;7.150;2023-05-07T14:22:20;3.22;;;3.00;;
7941;SDS011;4016;50.758;7.150;2023-05-07T14:27:23;3.55;;;3.25;;
7941;SDS011;4016;50.758;7.150;2023-05-07T14:32:23;3.40;;;3.10;;
7941;SDS011;4016;50.758;7.150;2023-05-07T14:37:24;4.50;;;3.33;;
7941;SDS011;4016;50.758;7.150;2023-05-07T14:42:24;3.75;;;3.40;;
7941;SDS011;4016;50.758;7.150;2023-05-07T14:47:25;3.58;;;3.30;;
7941;SDS011;4016;50.758;7.150;2023-05-07T14:52:25;4.03;;;3.63;;
7941;SDS011;4016;50.758;7.150;2023-05-07T14:57:26;3.58;;;3.28;;
7941;SDS011;4016;50.758;7.150;2023-05-07T15:02:26;3.40;;;3.10;;
7941;SDS011;4016;50.758;7.150;2023-05-07T15:07:27;3.63;;;3.30;;
7941;SDS011;4016;50.758;7.150;2023-05-07T15:12:28;4.05;;;3.13;;
7941;SDS011;4016;50.758;7.150;2023-05-07T15:17:28;4.13;;;3.28;;
7941;SDS011;4016;50.758;7.150;2023-05-07T15:22:28;3.47;;;3.17;;
7941;SDS011;4016;50.758;7.150;2023-05-07T15:27:30;3.13;;;2.83;;
7941;SDS011;4016;50.758;7.150;2023-05-07T15:32:31;3.45;;;3.15;;
7941;SDS011;4016;50.758;7.150;2023-05-07T15:37:31;5.13;;;3.40;;
7941;SDS011;4016;50.758;7.150;2023-05-07T15:42:32;3.40;;;3.17;;
7941;SDS011;4016;50.758;7.150;2023-05-07T15:47:33;4.93;;;3.33;;
7941;SDS011;4016;50.758;7.150;2023-05-07T15:52:35;4.63;;;3.45;;
7941;SDS011;4016;50.758;7.150;2023-05-07T15:57:35;10.23;;;7.60;;
7941;SDS011;4016;50.758;7.150;2023-05-07T16:02:36;6.13;;;5.30;;
7941;SDS011;4016;50.758;7.150;2023-05-07T16:07:36;4.40;;;4.00;;
7941;SDS011;4016;50.758;7.150;2023-05-07T16:12:37;5.30;;;3.80;;
7941;SDS011;4016;50.758;7.150;2023-05-07T16:17:37;3.90;;;3.60;;
7941;SDS011;4016;50.758;7.150;2023-05-07T16:22:38;3.90;;;3.60;;
7941;SDS011;4016;50.758;7.150;2023-05-07T16:27:38;4.80;;;3.95;;
7941;SDS011;4016;50.758;7.150;2023-05-07T16:32:39;5.00;;;3.88;;
7941;SDS011;4016;50.758;7.150;2023-05-07T16:37:39;4.57;;;3.80;;
7941;SDS011;4016;50.758;7.150;2023-05-07T16:42:40;7.10;;;4.05;;
7941;SDS011;4016;50.758;7.150;2023-05-07T16:47:41;4.25;;;3.85;;
7941;SDS011;4016;50.758;7.150;2023-05-07T16:52:41;5.45;;;4.05;;
7941;SDS011;4016;50.758;7.150;2023-05-07T16:57:41;5.60;;;4.40;;
7941;SDS011;4016;50.758;7.150;2023-05-07T17:02:42;5.38;;;4.57;;
7941;SDS011;4016;50.758;7.150;2023-05-07T17:07:42;6.53;;;5.60;;
7941;SDS011;4016;50.758;7.150;2023-05-07T17:12:43;7.43;;;6.30;;
7941;SDS011;4016;50.758;7.150;2023-05-07T17:17:43;7.00;;;5.53;;
7941;SDS011;4016;50.758;7.150;2023-05-07T17:22:43;5.25;;;4.75;;
7941;SDS011;4016;50.758;7.150;2023-05-07T17:27:44;4.75;;;4.35;;
7941;SDS011;4016;50.758;7.150;2023-05-07T17:32:44;5.55;;;4.45;;
7941;SDS011;4016;50.758;7.150;2023-05-07T17:37:45;4.40;;;4.00;;
7941;SDS011;4016;50.758;7.150;2023-05-07T17:42:51;5.10;;;4.57;;
7941;SDS011;4016;50.758;7.150;2023-05-07T17:47:51;5.55;;;4.97;;
7941;SDS011;4016;50.758;7.150;2023-05-07T17:52:51;5.20;;;4.45;;
7941;SDS011;4016;50.758;7.150;2023-05-07T17:57:52;5.88;;;4.22;;
7941;SDS011;4016;50.758;7.150;2023-05-07T18:02:52;4.82;;;4.40;;
7941;SDS011;4016;50.758;7.150;2023-05-07T18:07:53;4.88;;;4.28;;
7941;SDS011;4016;50.758;7.150;2023-05-07T18:12:54;5.45;;;4.47;;
7941;SDS011;4016;50.758;7.150;2023-05-07T18:17:55;5.07;;;4.68;;
7941;SDS011;4016;50.758;7.150;2023-05-07T18:22:57;5.03;;;4.60;;
7941;SDS011;4016;50.758;7.150;2023-05-07T18:27:57;4.72;;;4.22;;
7941;SDS011;4016;50.758;7.150;2023-05-07T18:32:57;5.82;;;4.53;;
7941;SDS011;4016;50.758;7.150;2023-05-07T18:37:58;5.30;;;4.80;;
7941;SDS011;4016;50.758;7.150;2023-05-07T18:42:58;7.13;;;5.80;;
7941;SDS011;4016;50.758;7.150;2023-05-07T18:48:05;7.35;;;5.60;;
7941;SDS011;4016;50.758;7.150;2023-05-07T18:53:06;11.10;;;6.50;;
7941;SDS011;4016;50.758;7.150;2023-05-07T18:58:06;7.57;;;6.20;;
7941;SDS011;4016;50.758;7.150;2023-05-07T19:03:06;6.72;;;6.13;;
7941;SDS011;4016;50.758;7.150;2023-05-07T19:08:07;9.50;;;5.90;;
7941;SDS011;4016;50.758;7.150;2023-05-07T19:13:07;10.10;;;6.35;;
7941;SDS011;4016;50.758;7.150;2023-05-07T19:18:07;6.40;;;5.80;;
7941;SDS011;4016;50.758;7.150;2023-05-07T19:23:08;6.50;;;5.80;;
7941;SDS011;4016;50.758;7.150;2023-05-07T19:28:10;9.77;;;5.88;;
7941;SDS011;4016;50.758;7.150;2023-05-07T19:33:10;7.60;;;6.80;;
7941;SDS011;4016;50.758;7.150;2023-05-07T19:38:11;6.22;;;5.60;;
7941;SDS011;4016;50.758;7.150;2023-05-07T19:43:11;7.32;;;6.53;;
7941;SDS011;4016;50.758;7.150;2023-05-07T19:48:12;7.05;;;6.45;;
7941;SDS011;4016;50.758;7.150;2023-05-07T19:53:14;6.57;;;5.97;;
7941;SDS011;4016;50.758;7.150;2023-05-07T19:58:14;7.37;;;6.30;;
7941;SDS011;4016;50.758;7.150;2023-05-07T20:03:15;7.25;;;6.55;;
7941;SDS011;4016;50.758;7.150;2023-05-07T20:08:17;7.38;;;6.68;;
7941;SDS011;4016;50.758;7.150;2023-05-07T20:13:18;8.37;;;7.57;;
7941;SDS011;4016;50.758;7.150;2023-05-07T20:18:18;7.80;;;7.00;;
7941;SDS011;4016;50.758;7.150;2023-05-07T20:23:18;7.20;;;6.50;;
7941;SDS011;4016;50.758;7.150;2023-05-07T20:28:19;9.33;;;7.40;;
7941;SDS011;4016;50.758;7.150;2023-05-07T20:33:20;7.53;;;6.53;;
7941;SDS011;4016;50.758;7.150;2023-05-07T20:38:20;6.00;;;5.50;;
7941;SDS011;4016;50.758;7.150;2023-05-07T20:43:20;6.63;;;5.93;;
7941;SDS011;4016;50.758;7.150;2023-05-07T20:48:21;6.00;;;5.40;;
7941;SDS011;4016;50.758;7.150;2023-05-07T20:53:21;9.60;;;5.80;;
7941;SDS011;4016;50.758;7.150;2023-05-07T20:58:22;5.70;;;5.10;;
7941;SDS011;4016;50.758;7.150;2023-05-07T21:03:26;5.40;;;4.90;;
7941;SDS011;4016;50.758;7.150;2023-05-07T21:08:26;5.60;;;4.77;;
7941;SDS011;4016;50.758;7.150;2023-05-07T21:13:27;5.80;;;4.93;;
7941;SDS011;4016;50.758;7.150;2023-05-07T21:18:27;4.60;;;4.20;;
7941;SDS011;4016;50.758;7.150;2023-05-07T21:23:29;4.40;;;4.00;;
7941;SDS011;4016;50.758;7.150;2023-05-07T21:28:30;5.47;;;4.20;;
7941;SDS011;4016;50.758;7.150;2023-05-07T21:33:30;4.83;;;4.27;;
7941;SDS011;4016;50.758;7.150;2023-05-07T21:38:30;4.17;;;3.77;;
7941;SDS011;4016;50.758;7.150;2023-05-07T21:43:31;5.27;;;4.77;;
7941;SDS011;4016;50.758;7.150;2023-05-07T21:48:31;6.13;;;4.47;;
7941;SDS011;4016;50.758;7.150;2023-05-07T21:53:32;4.77;;;4.33;;
7941;SDS011;4016;50.758;7.150;2023-05-07T21:58:33;5.17;;;4.67;;
7941;SDS011;4016;50.758;7.150;2023-05-07T22:03:34;5.40;;;4.90;;
7941;SDS011;4016;50.758;7.150;2023-05-07T22:08:34;5.23;;;4.73;;
7941;SDS011;4016;50.758;7.150;2023-05-07T22:13:35;5.20;;;4.70;;
7941;SDS011;4016;50.758;7.150;2023-05-07T22:18:35;5.70;;;4.90;;
7941;SDS011;4016;50.758;7.150;2023-05-07T22:23:35;6.27;;;4.83;;
7941;SDS011;4016;50.758;7.150;2023-05-07T22:28:36;5.03;;;4.53;;
7941;SDS011;4016;50.758;7.150;2023-05-07T22:33:36;5.40;;;4.90;;
7941;SDS011;4016;50.758;7.150;2023-05-07T22:38:37;5.10;;;4.60;;
7941;SDS011;4016;50.758;7.150;2023-05-07T22:43:37;5.40;;;4.83;;
7941;SDS011;4016;50.758;7.150;2023-05-07T22:48:38;7.37;;;5.63;;
7941;SDS011;4016;50.758;7.150;2023-05-07T22:53:38;6.73;;;5.23;;
7941;SDS011;4016;50.758;7.150;2023-05-07T22:58:39;6.23;;;4.73;;
7941;SDS011;4016;50.758;7.150;2023-05-07T23:03:39;5.40;;;4.90;;
7941;SDS011;4016;50.758;7.150;2023-05-07T23:08:40;6.60;;;5.13;;
7941;SDS011;4016;50.758;7.150;2023-05-07T23:13:40;6.87;;;5.93;;
7941;SDS011;4016;50.758;7.150;2023-05-07T23:18:41;6.60;;;5.90;;
7941;SDS011;4016;50.758;7.150;2023-05-07T23:23:41;6.50;;;5.90;;
7941;SDS011;4016;50.758;7.150;2023-05-07T23:28:41;6.50;;;5.90;;
7941;SDS011;4016;50.758;7.150;2023-05-07T23:33:42;7.17;;;5.50;;
7941;SDS011;4016;50.758;7.150;2023-05-07T23:38:42;5.93;;;5.43;;
7941;SDS011;4016;50.758;7.150;2023-05-07T23:43:43;7.50;;;6.00;;
7941;SDS011;4016;50.758;7.150;2023-05-07T23:48:43;8.20;;;6.23;;
7941;SDS011;4016;50.758;7.150;2023-05-07T23:53:44;7.53;;;5.67;;
7941;SDS011;4016;50.758;7.150;2023-05-07T23:58:44;6.10;;;5.40;;
